Time;durP1;ratioP1;P1;durP2;ratioP2;P2;SDS_P1;SDS_P2;PMS_P1;PMS_P2;Temp;Humidity;BMP_temperature;BMP_pressure;BME280_temperature;BME280_humidity;BME280_pressure;Samples;Min_cycle;Max_cycle;Signal;HPM_P1;HPM_P2
2022/12/11 00:00:38;;;;;;;111.93;47.10;;;;;;;-1.32;100.00;100955.53;5030317;28;20033;-89
2022/12/11 00:03:03;;;;;;;111.72;46.65;;;;;;;-1.10;100.00;100990.34;5028274;28;20094;-88
2022/12/11 00:05:29;;;;;;;116.60;47.42;;;;;;;-1.07;100.00;100998.16;5033748;28;20075;-88
2022/12/11 00:07:54;;;;;;;111.88;46.80;;;;;;;-1.10;100.00;100989.47;5038135;28;20553;-88
2022/12/11 00:10:19;;;;;;;106.63;46.15;;;;;;;-1.08;100.00;100987.75;5028879;28;20347;-88
2022/12/11 00:12:45;;;;;;;107.88;46.30;;;;;;;-1.13;100.00;100976.41;5049913;28;20029;-89
2022/12/11 00:15:10;;;;;;;104.28;45.25;;;;;;;-1.14;100.00;100972.06;5052363;28;20029;-89
2022/12/11 00:17:36;;;;;;;110.65;46.72;;;;;;;-1.07;100.00;100979.03;5038315;28;20105;-87
2022/12/11 00:20:01;;;;;;;104.47;44.30;;;;;;;-1.06;100.00;100989.47;5017522;28;20013;-88
2022/12/11 00:22:28;;;;;;;102.85;44.78;;;;;;;-1.08;100.00;100988.59;5030696;28;20279;-87
2022/12/11 00:24:54;;;;;;;107.18;45.30;;;;;;;-1.14;100.00;100969.44;5031199;28;20320;-88
2022/12/11 00:27:19;;;;;;;100.90;44.00;;;;;;;-1.16;100.00;100964.22;5028097;28;20466;-87
2022/12/11 00:29:44;;;;;;;101.20;44.67;;;;;;;-1.01;100.00;100981.59;5030122;28;20049;-87
2022/12/11 00:32:10;;;;;;;93.07;42.38;;;;;;;-1.03;100.00;100981.63;5026000;28;20044;-87
2022/12/11 00:34:35;;;;;;;96.53;43.53;;;;;;;-1.06;100.00;100980.75;5024392;28;20053;-87
2022/12/11 00:37:00;;;;;;;99.00;43.78;;;;;;;-1.08;100.00;100977.28;5013427;28;20041;-88
2022/12/11 00:39:26;;;;;;;93.22;42.38;;;;;;;-1.13;100.00;100964.22;5013845;28;20030;-89
2022/12/11 00:41:51;;;;;;;93.25;42.03;;;;;;;-1.04;100.00;100973.81;5024752;28;20052;-89
2022/12/11 00:44:16;;;;;;;87.05;41.63;;;;;;;-1.06;100.00;100978.13;5047614;28;20036;-88
2022/12/11 00:46:42;;;;;;;99.78;44.67;;;;;;;-1.06;100.00;100973.78;5039413;28;20028;-89
2022/12/11 00:49:07;;;;;;;98.90;44.75;;;;;;;-1.01;100.00;100979.88;5056292;28;20035;-87
2022/12/11 00:51:32;;;;;;;92.03;42.92;;;;;;;-1.10;100.00;100960.72;5027963;28;20026;-88
2022/12/11 00:53:58;;;;;;;96.43;43.67;;;;;;;-1.02;100.00;100975.53;5049499;28;20025;-89
2022/12/11 00:56:24;;;;;;;94.13;43.92;;;;;;;-1.04;100.00;100971.19;5042482;28;20048;-89
2022/12/11 00:58:49;;;;;;;97.78;44.25;;;;;;;-1.07;100.00;100965.97;5039150;28;20021;-88
2022/12/11 01:01:18;;;;;;;96.82;44.38;;;;;;;-0.94;100.00;100983.34;5032108;28;20048;-88
2022/12/11 01:03:44;;;;;;;89.13;41.70;;;;;;;-0.98;100.00;100980.75;5047795;28;20071;-88
2022/12/11 01:06:21;;;;;;;93.82;41.75;;;;;;;-1.06;100.00;100963.34;5055238;28;20024;-88
2022/12/11 01:08:47;;;;;;;89.68;43.35;;;;;;;-0.98;100.00;100972.91;5039508;28;20475;-88
2022/12/11 01:11:15;;;;;;;96.40;42.35;;;;;;;-1.06;100.00;100952.00;5027959;28;20045;-89
2022/12/11 01:13:41;;;;;;;90.88;41.88;;;;;;;-0.97;100.00;100969.41;5035045;28;20041;-88
2022/12/11 01:16:12;;;;;;;94.30;42.65;;;;;;;-0.88;100.00;100982.47;5036621;28;20037;-89
2022/12/11 01:18:38;;;;;;;90.32;42.90;;;;;;;-1.06;100.00;100947.66;5034608;28;20124;-87
2022/12/11 01:21:08;;;;;;;90.65;41.85;;;;;;;-0.96;100.00;100972.03;5031687;28;20041;-88
2022/12/11 01:23:34;;;;;;;82.15;39.95;;;;;;;-0.88;100.00;100977.22;5046258;28;20040;-88
2022/12/11 01:26:12;;;;;;;84.43;41.08;;;;;;;-0.84;100.00;100981.59;5032484;28;20033;-88
2022/12/11 01:28:38;;;;;;;88.32;41.58;;;;;;;-0.96;100.00;100963.31;5013989;28;20461;-88
2022/12/11 01:31:11;;;;;;;87.00;41.50;;;;;;;-0.87;100.00;100979.88;5015582;28;20093;-87
2022/12/11 01:33:37;;;;;;;85.20;42.20;;;;;;;-0.86;100.00;100983.34;5020286;28;20060;-88
2022/12/11 01:36:12;;;;;;;83.00;41.38;;;;;;;-0.94;100.00;100972.03;5033643;28;20060;-88
2022/12/11 01:38:38;;;;;;;87.97;41.70;;;;;;;-0.92;100.00;100971.16;5033339;28;20048;-88
2022/12/11 01:41:04;;;;;;;80.80;38.55;;;;;;;-0.97;100.00;100957.22;5032635;28;20058;-87
2022/12/11 01:43:29;;;;;;;81.15;40.05;;;;;;;-0.91;100.00;100967.69;5017648;28;20030;-87
2022/12/11 01:45:55;;;;;;;80.28;40.20;;;;;;;-0.86;100.00;100976.38;5024666;28;20068;-88
2022/12/11 01:48:23;;;;;;;80.20;39.65;;;;;;;-0.95;100.00;100954.63;5034295;28;20037;-88
2022/12/11 01:51:03;;;;;;;79.35;40.22;;;;;;;-0.97;100.00;100951.13;5020042;28;20038;-89
2022/12/11 01:53:42;;;;;;;77.05;39.20;;;;;;;-0.97;100.00;100951.13;5015502;28;20109;-88
2022/12/11 01:56:08;;;;;;;79.45;39.45;;;;;;;-0.97;100.00;100943.28;5031459;28;20120;-90
2022/12/11 01:58:39;;;;;;;81.22;39.85;;;;;;;-0.83;100.00;100962.44;5034324;28;20057;-88
2022/12/11 02:01:05;;;;;;;76.63;38.83;;;;;;;-0.94;100.00;100944.16;5032962;28;20081;-89
2022/12/11 02:03:30;;;;;;;77.13;38.85;;;;;;;-0.86;100.00;100967.66;5031993;28;20061;-89
2022/12/11 02:06:00;;;;;;;79.75;37.92;;;;;;;-0.90;100.00;100951.13;5036381;28;20047;-88
2022/12/11 02:08:25;;;;;;;77.50;39.75;;;;;;;-0.85;100.00;100957.19;5052654;28;20059;-88
2022/12/11 02:11:12;;;;;;;76.35;38.63;;;;;;;-0.79;100.00;100974.63;5041064;28;20025;-88
2022/12/11 02:13:54;;;;;;;70.80;37.53;;;;;;;-0.79;100.00;100980.72;5032447;28;20116;-88
2022/12/11 02:16:33;;;;;;;70.68;37.33;;;;;;;-0.82;100.00;100965.03;5019393;28;20034;-89
2022/12/11 02:19:07;;;;;;;76.70;38.08;;;;;;;-0.78;100.00;100969.38;5019408;28;20037;-88
2022/12/11 02:21:47;;;;;;;74.30;38.47;;;;;;;-0.77;100.00;100972.88;5033505;28;20033;-89
2022/12/11 02:24:31;;;;;;;71.85;37.88;;;;;;;-0.74;100.00;100972.88;5048869;28;20025;-89
2022/12/11 02:26:59;;;;;;;75.05;38.97;;;;;;;-0.74;100.00;100970.25;5026211;28;20117;-88
2022/12/11 02:29:52;;;;;;;75.57;39.50;;;;;;;-0.82;100.00;100957.19;5020429;28;20029;-89
2022/12/11 02:32:26;;;;;;;74.18;38.92;;;;;;;-0.89;100.00;100939.78;5031994;28;20478;-89
2022/12/11 02:34:58;;;;;;;74.05;37.47;;;;;;;-0.75;100.00;100963.28;5033411;28;20531;-89
2022/12/11 02:37:28;;;;;;;66.43;35.72;;;;;;;-0.85;100.00;100945.88;5046053;28;20033;-88
2022/12/11 02:39:55;;;;;;;68.60;36.92;;;;;;;-0.76;100.00;100962.38;5024979;28;20041;-88
2022/12/11 02:42:25;;;;;;;73.75;37.00;;;;;;;-0.94;100.00;100928.47;5011003;28;20061;-88
2022/12/11 02:44:53;;;;;;;70.32;37.55;;;;;;;-0.87;100.00;100938.06;5017718;28;20792;-88
2022/12/11 02:47:20;;;;;;;72.30;37.63;;;;;;;-0.73;100.00;100964.13;5032009;28;20110;-89
2022/12/11 02:49:49;;;;;;;70.78;36.92;;;;;;;-0.80;100.00;100942.38;5026551;28;20028;-87
2022/12/11 02:52:19;;;;;;;71.80;37.60;;;;;;;-0.73;100.00;100961.53;5019312;28;20058;-88
2022/12/11 02:54:46;;;;;;;69.28;35.67;;;;;;;-0.84;100.00;100935.41;5022636;28;20033;-88
2022/12/11 02:57:17;;;;;;;65.22;34.63;;;;;;;-0.74;100.00;100965.03;5041952;28;20301;-88
2022/12/11 02:59:45;;;;;;;69.57;37.65;;;;;;;-0.78;100.00;100947.59;5036959;28;20033;-88
2022/12/11 03:02:12;;;;;;;69.50;36.45;;;;;;;-0.90;100.00;100929.34;5031493;28;20430;-89
2022/12/11 03:04:38;;;;;;;64.15;34.58;;;;;;;-0.86;100.00;100931.94;5040138;28;20053;-88
2022/12/11 03:07:10;;;;;;;61.58;34.20;;;;;;;-0.74;100.00;100954.56;5028939;28;20069;-89
2022/12/11 03:09:40;;;;;;;62.53;35.63;;;;;;;-0.79;100.00;100940.66;5025604;28;20083;-88
2022/12/11 03:12:09;;;;;;;65.30;35.75;;;;;;;-0.75;100.00;100942.38;5015816;28;20104;-89
2022/12/11 03:14:37;;;;;;;66.72;35.00;;;;;;;-0.74;100.00;100938.88;5013761;28;20080;-89
2022/12/11 03:17:14;;;;;;;63.80;34.15;;;;;;;-0.74;100.00;100936.28;5015771;28;20021;-89
2022/12/11 03:20:22;;;;;;;60.60;33.35;;;;;;;-0.95;100.00;100900.63;5025915;28;20876;-89
2022/12/11 03:22:55;;;;;;;57.40;33.05;;;;;;;-0.80;100.00;100928.44;5015559;28;20076;-89
2022/12/11 03:25:49;;;;;;;59.00;33.35;;;;;;;-0.73;100.00;100929.28;5020252;28;20033;-88
2022/12/11 03:28:40;;;;;;;59.08;33.33;;;;;;;-0.69;100.00;100941.47;5027805;28;20095;-88
2022/12/11 03:31:10;;;;;;;61.40;34.10;;;;;;;-0.72;100.00;100939.72;5014334;28;20060;-89
2022/12/11 03:33:39;;;;;;;55.42;32.70;;;;;;;-0.80;100.00;100923.22;5013307;28;20029;-88
2022/12/11 03:36:12;;;;;;;60.00;34.17;;;;;;;-0.70;100.00;100938.00;5025847;28;20032;-88
2022/12/11 03:38:48;;;;;;;54.92;33.20;;;;;;;-0.68;100.00;100933.63;5028764;28;20371;-87
2022/12/11 03:41:16;;;;;;;55.88;33.20;;;;;;;-0.76;100.00;100923.19;5016487;28;20152;-87
2022/12/11 03:43:43;;;;;;;55.60;31.75;;;;;;;-0.68;100.00;100933.63;5037669;28;20116;-88
2022/12/11 03:46:11;;;;;;;54.38;32.00;;;;;;;-0.77;100.00;100917.97;5025280;28;20021;-88
2022/12/11 03:48:41;;;;;;;52.35;31.98;;;;;;;-0.68;100.00;100928.41;5028052;28;20616;-87
2022/12/11 03:51:07;;;;;;;58.55;33.28;;;;;;;-0.68;100.00;100925.78;5032242;28;20081;-88
2022/12/11 03:53:35;;;;;;;52.78;31.48;;;;;;;-0.67;100.00;100924.94;5031149;28;20135;-88
2022/12/11 03:56:03;;;;;;;53.97;31.33;;;;;;;-0.65;100.00;100919.69;5030862;28;20053;-88
2022/12/11 03:58:28;;;;;;;50.75;29.98;;;;;;;-0.66;100.00;100915.34;5020975;28;20017;-89
2022/12/11 04:00:54;;;;;;;52.25;31.42;;;;;;;-0.69;100.00;100903.13;5030970;28;20055;-88
2022/12/11 04:03:19;;;;;;;50.83;30.05;;;;;;;-0.70;100.00;100904.03;5040191;28;20040;-87
2022/12/11 04:05:47;;;;;;;46.90;28.38;;;;;;;-0.74;100.00;100902.28;5032924;28;20152;-89
2022/12/11 04:08:14;;;;;;;46.47;28.63;;;;;;;-0.77;100.00;100900.53;5035595;28;20589;-88
2022/12/11 04:10:40;;;;;;;44.55;28.17;;;;;;;-0.66;100.00;100913.59;5035834;28;20029;-88
2022/12/11 04:13:06;;;;;;;43.03;27.48;;;;;;;-0.65;100.00;100917.06;5042394;28;20017;-88
2022/12/11 04:15:32;;;;;;;40.90;27.33;;;;;;;-0.66;100.00;100915.34;5028943;28;20029;-89
2022/12/11 04:26:16;;;;;;;36.92;25.10;;;;;;;-0.80;100.00;100891.84;4950816;28;20038;-88
2022/12/11 04:28:43;;;;;;;35.05;23.92;;;;;;;-0.75;100.00;100911.03;4953735;28;20043;-88
2022/12/11 04:31:19;;;;;;;33.95;23.23;;;;;;;-0.72;100.00;100910.97;4952878;28;20126;-88
2022/12/11 04:33:44;;;;;;;33.80;23.77;;;;;;;-0.72;100.00;100910.97;4937521;29;20126;-88
2022/12/11 04:36:10;;;;;;;30.17;22.63;;;;;;;-0.72;100.00;100910.97;4937172;28;20034;-88
2022/12/11 04:38:36;;;;;;;33.55;23.20;;;;;;;-0.86;100.00;100881.44;4952049;28;20614;-88
2022/12/11 04:41:07;;;;;;;33.35;23.48;;;;;;;-0.73;100.00;100904.03;4952280;28;20051;-89
2022/12/11 04:43:32;;;;;;;33.58;22.05;;;;;;;-0.85;100.00;100893.63;4958418;28;20034;-89
2022/12/11 04:46:07;;;;;;;32.97;23.65;;;;;;;-0.73;100.00;100917.09;4954226;28;20035;-87
2022/12/11 04:48:33;;;;;;;28.55;20.70;;;;;;;-0.87;100.00;100892.75;4931849;29;20074;-88
2022/12/11 04:50:59;;;;;;;29.13;20.65;;;;;;;-0.75;100.00;100911.03;4948626;28;20050;-88
2022/12/11 04:53:25;;;;;;;28.15;20.33;;;;;;;-0.79;100.00;100904.06;4952798;28;20043;-87
2022/12/11 04:55:51;;;;;;;29.30;21.40;;;;;;;-0.84;100.00;100895.34;4959964;28;20419;-87
2022/12/11 04:58:16;;;;;;;30.35;21.05;;;;;;;-0.89;100.00;100887.53;4968514;28;20051;-88
2022/12/11 05:00:42;;;;;;;29.48;21.55;;;;;;;-0.87;100.00;100890.16;5000866;28;20057;-89
2022/12/11 05:03:07;;;;;;;29.50;21.60;;;;;;;-0.94;100.00;100871.00;5032400;28;20033;-88
2022/12/11 05:05:33;;;;;;;28.42;21.10;;;;;;;-0.78;100.00;100898.81;5030434;28;20119;-87
2022/12/11 05:07:58;;;;;;;31.05;21.15;;;;;;;-0.86;100.00;100884.03;5018291;28;20078;-89
2022/12/11 05:10:24;;;;;;;29.67;21.58;;;;;;;-0.91;100.00;100877.97;5031614;28;20072;-88
2022/12/11 05:12:49;;;;;;;28.17;20.90;;;;;;;-0.88;100.00;100881.44;5033649;28;20037;-89
2022/12/11 05:15:15;;;;;;;27.58;20.38;;;;;;;-0.99;100.00;100861.44;5031881;28;20176;-89
2022/12/11 05:17:40;;;;;;;26.23;20.25;;;;;;;-0.85;100.00;100883.16;5031684;28;20033;-89
2022/12/11 05:20:06;;;;;;;27.60;20.50;;;;;;;-0.79;100.00;100889.25;5014218;28;20034;-90
2022/12/11 05:22:31;;;;;;;27.98;19.70;;;;;;;-1.13;100.00;100836.25;5031524;28;20044;-89
2022/12/11 05:24:59;;;;;;;26.88;21.40;;;;;;;-0.86;100.00;100881.44;5030751;28;20021;-88
2022/12/11 05:27:24;;;;;;;27.83;20.30;;;;;;;-0.83;100.00;100891.88;5029670;28;20026;-89
2022/12/11 05:29:50;;;;;;;27.98;20.13;;;;;;;-0.80;100.00;100892.72;5030029;28;20551;-86
2022/12/11 05:32:15;;;;;;;25.27;19.95;;;;;;;-0.93;100.00;100864.91;5030515;28;20037;-89
2022/12/11 05:34:40;;;;;;;30.17;20.88;;;;;;;-0.86;100.00;100863.13;5031548;28;20016;-90
2022/12/11 05:37:06;;;;;;;28.77;20.08;;;;;;;-0.80;100.00;100870.94;5030930;28;20037;-90
2022/12/11 05:39:31;;;;;;;29.35;19.85;;;;;;;-0.77;100.00;100873.56;5028258;28;20398;-89
2022/12/11 05:41:57;;;;;;;26.85;20.25;;;;;;;-0.78;100.00;100882.28;5037500;28;20406;-89
2022/12/11 05:44:22;;;;;;;28.30;20.27;;;;;;;-0.77;100.00;100882.25;5038697;28;20026;-88
2022/12/11 05:46:48;;;;;;;26.92;20.50;;;;;;;-0.89;100.00;100866.63;5034252;28;20466;-88
2022/12/11 05:49:14;;;;;;;28.35;21.02;;;;;;;-0.86;100.00;100879.69;5018671;28;20030;-89
2022/12/11 05:51:40;;;;;;;24.65;19.75;;;;;;;-0.73;100.00;100897.94;5035703;28;20039;-89
2022/12/11 05:54:05;;;;;;;29.42;21.20;;;;;;;-0.84;100.00;100879.66;5035755;28;20025;-89
2022/12/11 05:56:33;;;;;;;25.63;19.38;;;;;;;-0.73;100.00;100895.31;5022531;28;20048;-88
2022/12/11 05:58:59;;;;;;;28.45;20.80;;;;;;;-0.73;100.00;100890.97;5034828;28;20038;-89
2022/12/11 06:01:28;;;;;;;29.67;20.02;;;;;;;-0.72;100.00;100897.91;5033343;28;20493;-89
2022/12/11 06:03:55;;;;;;;23.45;19.17;;;;;;;-0.83;100.00;100881.44;5060411;28;20029;-90
2022/12/11 06:06:21;;;;;;;25.50;18.73;;;;;;;-0.72;100.00;100900.53;5065445;28;20021;-89
2022/12/11 06:08:50;;;;;;;27.38;19.58;;;;;;;-0.70;100.00;100892.69;5048817;28;20040;-88
2022/12/11 06:11:16;;;;;;;27.30;19.10;;;;;;;-0.75;100.00;100879.66;5017240;28;20475;-89
2022/12/11 06:13:41;;;;;;;27.27;20.42;;;;;;;-0.71;100.00;100891.84;5027000;28;20033;-87
2022/12/11 06:16:07;;;;;;;26.17;19.10;;;;;;;-0.73;100.00;100890.09;5026313;28;20580;-88
2022/12/11 06:18:37;;;;;;;25.77;19.27;;;;;;;-0.83;100.00;100870.97;5030892;28;20049;-87
2022/12/11 06:21:20;;;;;;;27.83;20.60;;;;;;;-0.78;100.00;100879.66;5026148;28;20204;-88
2022/12/11 06:23:47;;;;;;;26.67;20.73;;;;;;;-0.80;100.00;100866.56;5033461;28;20531;-87
2022/12/11 06:26:14;;;;;;;25.45;19.25;;;;;;;-0.70;100.00;100890.94;5031943;28;20567;-87
2022/12/11 06:28:39;;;;;;;28.00;20.70;;;;;;;-0.72;100.00;100886.59;5029329;28;20080;-85
2022/12/11 06:31:05;;;;;;;26.05;20.20;;;;;;;-0.67;100.00;100888.34;5019054;28;20025;-88
2022/12/11 06:33:31;;;;;;;28.40;20.13;;;;;;;-0.69;100.00;100884.84;5033679;28;20076;-89
2022/12/11 06:36:00;;;;;;;28.33;20.00;;;;;;;-0.75;100.00;100882.28;5031075;28;20065;-88
2022/12/11 06:38:26;;;;;;;28.23;19.70;;;;;;;-0.65;100.00;100888.31;5017403;28;20225;-88
2022/12/11 06:40:56;;;;;;;27.35;19.65;;;;;;;-0.74;100.00;100880.53;5016552;28;20470;-88
2022/12/11 06:43:21;;;;;;;27.33;20.02;;;;;;;-0.69;100.00;100882.22;5032196;28;20101;-88
2022/12/11 06:45:47;;;;;;;29.02;20.48;;;;;;;-0.64;100.00;100885.69;5040783;28;20045;-87
2022/12/11 06:48:12;;;;;;;29.35;22.02;;;;;;;-0.65;100.00;100885.69;5026382;28;20029;-88
2022/12/11 06:50:37;;;;;;;26.52;20.95;;;;;;;-0.76;100.00;100862.22;5049336;28;20045;-89
2022/12/11 06:53:03;;;;;;;29.58;20.92;;;;;;;-0.65;100.00;100876.13;5040656;28;20021;-88
2022/12/11 06:55:29;;;;;;;30.20;21.42;;;;;;;-0.78;100.00;100858.75;5039208;28;20052;-88
2022/12/11 06:57:54;;;;;;;30.40;22.85;;;;;;;-0.77;100.00;100857.88;5021126;28;20926;-88
2022/12/11 07:00:19;;;;;;;29.15;21.48;;;;;;;-0.76;100.00;100864.81;5031070;28;20013;-88
2022/12/11 07:02:45;;;;;;;31.38;22.42;;;;;;;-0.71;100.00;100876.16;5032959;28;20018;-89
2022/12/11 07:05:10;;;;;;;33.60;24.48;;;;;;;-0.78;100.00;100864.84;5021446;28;20025;-88
2022/12/11 07:07:36;;;;;;;33.05;23.42;;;;;;;-0.74;100.00;100876.16;5024374;28;20036;-88
2022/12/11 07:10:02;;;;;;;32.28;23.70;;;;;;;-0.73;100.00;100883.13;5026959;28;20084;-88
2022/12/11 07:12:27;;;;;;;35.15;24.05;;;;;;;-0.75;100.00;100879.66;5040842;28;20037;-89
2022/12/11 07:14:52;;;;;;;33.63;24.13;;;;;;;-0.77;100.00;100877.03;5036901;28;20051;-88
2022/12/11 07:17:18;;;;;;;32.03;23.02;;;;;;;-0.64;100.00;100893.53;5025493;28;20029;-88
2022/12/11 07:19:43;;;;;;;32.60;23.13;;;;;;;-0.82;100.00;100870.09;5033477;28;20029;-88
2022/12/11 07:22:09;;;;;;;30.23;22.38;;;;;;;-0.73;100.00;100887.47;5025755;28;20108;-88
2022/12/11 07:24:34;;;;;;;35.15;24.25;;;;;;;-0.72;100.00;100897.06;5036500;28;20509;-87
2022/12/11 07:26:59;;;;;;;32.58;23.25;;;;;;;-0.64;100.00;100906.59;5026457;28;20056;-87
2022/12/11 07:29:25;;;;;;;33.03;22.77;;;;;;;-0.69;100.00;100900.53;5028394;28;20033;-87
2022/12/11 07:31:50;;;;;;;34.05;22.58;;;;;;;-0.66;100.00;100900.53;5030656;28;20021;-88
2022/12/11 07:34:15;;;;;;;33.08;23.63;;;;;;;-0.66;100.00;100916.22;5030204;28;20017;-87
2022/12/11 07:36:42;;;;;;;33.00;23.88;;;;;;;-0.68;100.00;100909.22;5028379;28;20018;-87
2022/12/11 07:39:09;;;;;;;37.05;25.15;;;;;;;-0.67;100.00;100911.88;5023445;28;20030;-87
2022/12/11 07:41:34;;;;;;;34.78;26.15;;;;;;;-0.66;100.00;100920.56;5028161;28;20075;-88
2022/12/11 07:44:01;;;;;;;34.95;24.95;;;;;;;-0.67;100.00;100911.88;5043735;28;20541;-88
2022/12/11 07:46:29;;;;;;;34.70;24.77;;;;;;;-0.67;100.00;100910.97;5045475;28;20403;-87
2022/12/11 07:48:55;;;;;;;36.63;24.50;;;;;;;-0.67;100.00;100906.63;5028694;28;20025;-88
2022/12/11 07:51:26;;;;;;;36.92;24.73;;;;;;;-0.69;100.00;100892.69;5033228;28;20029;-87
2022/12/11 07:53:56;;;;;;;33.45;24.05;;;;;;;-0.65;100.00;100901.38;5038657;28;20025;-88
2022/12/11 07:56:22;;;;;;;35.65;24.48;;;;;;;-0.65;100.00;100907.47;5030350;28;20087;-88
2022/12/11 07:58:48;;;;;;;35.45;25.30;;;;;;;-0.69;100.00;100894.44;5021578;28;20022;-88
2022/12/11 08:01:17;;;;;;;33.47;23.65;;;;;;;-0.69;100.00;100903.13;5029962;28;20025;-88
2022/12/11 08:03:43;;;;;;;32.90;23.00;;;;;;;-0.76;100.00;100885.72;5030459;28;20040;-87
2022/12/11 08:06:09;;;;;;;35.88;23.70;;;;;;;-0.68;100.00;100902.25;5030093;28;20030;-88
2022/12/11 08:08:35;;;;;;;36.58;23.92;;;;;;;-0.69;100.00;100894.44;5031840;28;20093;-87
2022/12/11 08:11:05;;;;;;;33.88;23.35;;;;;;;-0.61;100.00;100906.59;5033254;28;20040;-87
2022/12/11 08:13:31;;;;;;;33.25;23.70;;;;;;;-0.61;100.00;100909.22;5026080;28;20065;-88
2022/12/11 08:15:57;;;;;;;32.30;22.50;;;;;;;-0.64;100.00;100897.88;5018570;28;20025;-88
2022/12/11 08:18:23;;;;;;;32.80;23.08;;;;;;;-0.63;100.00;100900.50;5029811;28;20506;-88
2022/12/11 08:20:48;;;;;;;35.22;23.42;;;;;;;-0.72;100.00;100881.38;5031608;28;20060;-86
2022/12/11 08:23:13;;;;;;;31.05;22.88;;;;;;;-0.64;100.00;100903.13;5038189;28;20591;-86
2022/12/11 08:25:39;;;;;;;32.33;22.90;;;;;;;-0.70;100.00;100893.56;5030065;28;20478;-87
2022/12/11 08:28:04;;;;;;;31.33;22.73;;;;;;;-0.62;100.00;100902.25;5026856;28;20051;-88
2022/12/11 08:30:30;;;;;;;33.15;21.88;;;;;;;-0.64;100.00;100901.38;5028096;28;20068;-88
2022/12/11 08:32:56;;;;;;;32.33;22.33;;;;;;;-0.61;100.00;100908.34;5030247;28;20029;-88
2022/12/11 08:35:21;;;;;;;32.47;21.98;;;;;;;-0.66;100.00;100900.53;5034483;28;20017;-88
2022/12/11 08:37:47;;;;;;;27.90;20.73;;;;;;;-0.69;100.00;100892.69;5028139;28;20025;-87
2022/12/11 08:40:13;;;;;;;31.33;22.27;;;;;;;-0.57;100.00;100904.84;5042624;28;20120;-88
2022/12/11 08:42:38;;;;;;;28.58;21.52;;;;;;;-0.57;100.00;100905.72;5040383;28;20029;-87
2022/12/11 08:45:05;;;;;;;29.52;21.15;;;;;;;-0.56;100.00;100896.97;5029728;28;20020;-87
2022/12/11 08:47:30;;;;;;;31.55;21.77;;;;;;;-0.58;100.00;100898.75;5022212;28;20069;-88
2022/12/11 08:49:56;;;;;;;31.90;21.70;;;;;;;-0.53;100.00;100902.19;5020883;28;20088;-87
2022/12/11 08:52:21;;;;;;;31.13;21.88;;;;;;;-0.58;100.00;100898.75;5030408;28;20065;-88
2022/12/11 08:54:47;;;;;;;32.55;22.73;;;;;;;-0.57;100.00;100883.94;5025596;28;20097;-88
2022/12/11 08:57:12;;;;;;;27.20;19.58;;;;;;;-0.58;100.00;100877.84;5024751;28;20043;-88
2022/12/11 08:59:38;;;;;;;31.88;21.42;;;;;;;-0.44;100.00;100892.56;5033735;28;20039;-88
2022/12/11 09:02:03;;;;;;;28.33;20.58;;;;;;;-0.48;100.00;100888.25;5031169;28;20013;-85
2022/12/11 09:04:29;;;;;;;30.25;21.58;;;;;;;-0.47;100.00;100889.97;5049103;28;20052;-88
2022/12/11 09:06:54;;;;;;;31.88;20.75;;;;;;;-0.46;100.00;100892.59;5021770;28;20427;-88
2022/12/11 09:09:19;;;;;;;31.75;21.98;;;;;;;-0.51;100.00;100876.91;5034476;28;20745;-88
2022/12/11 09:11:45;;;;;;;29.23;21.30;;;;;;;-0.38;100.00;100906.47;5031486;28;20147;-87
2022/12/11 09:14:10;;;;;;;29.83;21.23;;;;;;;-0.39;100.00;100898.66;5037000;28;20037;-88
2022/12/11 09:16:39;;;;;;;34.08;23.60;;;;;;;-0.39;100.00;100902.13;5033596;28;20045;-87
2022/12/11 09:19:06;;;;;;;34.28;24.33;;;;;;;-0.39;100.00;100896.03;5038472;28;20026;-87
2022/12/11 09:21:31;;;;;;;31.05;21.67;;;;;;;-0.37;100.00;100894.28;5033583;28;20034;-88
2022/12/11 09:23:59;;;;;;;34.65;22.92;;;;;;;-0.35;100.00;100900.38;5034637;28;20116;-88
2022/12/11 09:26:26;;;;;;;32.47;21.90;;;;;;;-0.37;100.00;100897.78;5028198;28;20037;-87
2022/12/11 09:28:52;;;;;;;34.10;22.45;;;;;;;-0.35;100.00;100900.38;5044210;28;20095;-88
2022/12/11 09:31:23;;;;;;;33.65;23.02;;;;;;;-0.32;100.00;100893.38;5036450;28;20036;-87
2022/12/11 09:33:49;;;;;;;32.20;21.80;;;;;;;-0.29;100.00;100890.75;5036033;28;20034;-88
2022/12/11 09:36:14;;;;;;;32.42;21.77;;;;;;;-0.28;100.00;100889.00;5042829;28;20028;-89
2022/12/11 09:38:42;;;;;;;30.35;21.55;;;;;;;-0.27;100.00;100888.97;5071209;28;20045;-88
2022/12/11 09:41:20;;;;;;;31.83;22.35;;;;;;;-0.26;100.00;100895.09;5057093;28;20026;-88
2022/12/11 09:43:51;;;;;;;30.80;21.83;;;;;;;-0.26;100.00;100895.09;5062969;28;20036;-88
2022/12/11 09:46:17;;;;;;;32.17;21.70;;;;;;;-0.28;100.00;100891.63;5051904;28;20068;-88
2022/12/11 09:48:46;;;;;;;31.17;21.20;;;;;;;-0.26;100.00;100888.09;5044683;28;20030;-87
2022/12/11 09:51:27;;;;;;;32.38;21.65;;;;;;;-0.32;100.00;100888.16;5047855;28;20088;-88
2022/12/11 09:53:55;;;;;;;32.95;20.80;;;;;;;-0.26;100.00;100895.94;5036413;28;20034;-89
2022/12/11 09:56:44;;;;;;;27.85;20.25;;;;;;;-0.32;100.00;100879.44;5033296;28;20116;-88
2022/12/11 09:59:27;;;;;;;30.92;21.13;;;;;;;-0.22;100.00;100899.41;5032944;28;20041;-88
2022/12/11 10:05:05;;;;;;;30.88;20.80;;;;;;;-0.19;100.00;100891.56;5822394;22;20062;-87
2022/12/11 10:07:46;;;;;;;28.63;20.55;;;;;;;-0.21;100.00;100876.75;5011636;28;20037;-87
2022/12/11 10:10:53;;;;;;;30.23;21.10;;;;;;;-0.18;100.00;100887.19;5017917;28;20032;-87
2022/12/11 10:13:36;;;;;;;28.42;20.08;;;;;;;-0.21;100.00;100876.75;5013506;28;20084;-87
2022/12/11 10:16:12;;;;;;;31.52;20.77;;;;;;;-0.18;100.00;100879.34;5010926;28;20041;-85
2022/12/11 10:18:39;;;;;;;30.88;20.77;;;;;;;-0.18;100.00;100867.13;5009180;28;20026;-87
2022/12/11 10:21:05;;;;;;;27.85;20.58;;;;;;;-0.21;100.00;100867.16;5011116;28;20092;-88
2022/12/11 10:23:43;;;;;;;28.45;20.25;;;;;;;-0.14;100.00;100867.97;5019523;28;20030;-88
2022/12/11 10:26:17;;;;;;;29.60;20.42;;;;;;;-0.10;100.00;100874.94;5009661;28;20030;-87
2022/12/11 10:28:42;;;;;;;;;;;;;;;0.03;100.00;100860.88;5007978;28;20026;-88
2022/12/11 10:31:23;;;;;;;30.85;20.38;;;;;;;-0.07;100.00;100860.09;5010718;28;19981;-87
2022/12/11 10:33:53;;;;;;;27.90;19.65;;;;;;;-0.04;100.00;100865.31;5010583;28;20029;-88
2022/12/11 10:36:25;;;;;;;28.65;19.05;;;;;;;-0.03;100.00;100879.25;5004364;28;20029;-89
2022/12/11 10:38:51;;;;;;;29.92;19.52;;;;;;;-0.12;100.00;100861.88;5011113;28;20034;-89
2022/12/11 10:41:19;;;;;;;30.00;19.58;;;;;;;-0.06;100.00;100874.03;5021836;28;20076;-89
2022/12/11 10:43:48;;;;;;;28.60;19.73;;;;;;;-0.35;100.00;100838.47;5008074;28;20034;-90
2022/12/11 10:46:16;;;;;;;30.88;20.95;;;;;;;-0.15;100.00;100872.34;5012260;28;20443;-89
2022/12/11 10:48:54;;;;;;;35.25;22.30;;;;;;;-0.12;100.00;100867.09;5010878;28;20288;-86
2022/12/11 10:51:31;;;;;;;34.88;22.55;;;;;;;0.01;100.00;100864.41;5011116;28;20029;-87
2022/12/11 10:54:16;;;;;;;29.30;20.55;;;;;;;-0.01;100.00;100854.78;5017636;28;20042;-88
2022/12/11 10:56:45;;;;;;;27.88;18.63;;;;;;;0.10;100.00;100864.34;5011943;28;20033;-88
2022/12/11 10:59:34;;;;;;;28.10;18.20;;;;;;;0.13;100.00;100854.72;5009364;28;20026;-88
2022/12/11 11:02:01;;;;;;;29.73;19.58;;;;;;;0.09;100.00;100849.53;5017558;28;20069;-88
2022/12/11 11:04:37;;;;;;;30.00;18.52;;;;;;;0.06;100.00;100841.69;5007815;28;20112;-88
2022/12/11 11:07:11;;;;;;;27.23;18.60;;;;;;;0.18;100.00;100852.91;5018568;28;20541;-88
2022/12/11 11:09:38;;;;;;;;;;;;;;;0.30;100.00;100853.72;5035220;28;20034;-88
2022/12/11 11:12:15;;;;;;;28.10;19.02;;;;;;;0.23;100.00;100842.41;5018306;28;19943;-88
2022/12/11 11:14:41;;;;;;;27.80;19.10;;;;;;;0.20;100.00;100838.06;5014496;28;20623;-89
2022/12/11 11:17:14;;;;;;;27.63;18.83;;;;;;;0.38;100.00;100841.41;5016845;28;20096;-88
2022/12/11 11:19:40;;;;;;;27.45;18.77;;;;;;;0.40;100.00;100826.53;5025864;28;20025;-89